Time;durP1;ratioP1;P1;durP2;ratioP2;P2;SDS_P1;SDS_P2;PMS_P1;PMS_P2;Temp;Humidity;BMP_temperature;BMP_pressure;BME280_temperature;BME280_humidity;BME280_pressure;Samples;Min_cycle;Max_cycle;Signal;HPM_P1;HPM_P2
2022/09/15 00:01:36;;;;;;;45.17;27.97;;;;;;;;;;5012558;28;20206;-64
2022/09/15 00:04:02;;;;;;;42.50;27.73;;;;;;;;;;5012577;28;20180;-64
2022/09/15 00:06:28;;;;;;;43.87;28.80;;;;;;;;;;5013855;28;20545;-64
2022/09/15 00:08:54;;;;;;;47.80;29.70;;;;;;;;;;5012346;28;20212;-64
2022/09/15 00:11:22;;;;;;;46.77;29.03;;;;;;;;;;5012501;28;20188;-64
2022/09/15 00:13:49;;;;;;;43.13;29.60;;;;;;;;;;5012533;28;20640;-64
2022/09/15 00:16:16;;;;;;;42.83;28.40;;;;;;;;;;5012776;28;20222;-64
2022/09/15 00:18:42;;;;;;;44.33;28.47;;;;;;;;;;5013603;28;20227;-64
2022/09/15 00:21:09;;;;;;;43.37;28.47;;;;;;;;;;5013390;28;20204;-64
2022/09/15 00:23:36;;;;;;;47.67;29.23;;;;;;;;;;5013581;28;20172;-64
2022/09/15 00:26:05;;;;;;;48.70;29.00;;;;;;;;;;5012863;28;20198;-64
2022/09/15 00:28:31;;;;;;;47.60;28.77;;;;;;;;;;5012176;28;20558;-64
2022/09/15 00:30:57;;;;;;;45.23;29.17;;;;;;;;;;5013757;28;20179;-64
2022/09/15 00:33:23;;;;;;;47.70;29.37;;;;;;;;;;5012219;28;20199;-64
2022/09/15 00:35:50;;;;;;;42.87;27.87;;;;;;;;;;5012198;28;20184;-64
2022/09/15 00:38:17;;;;;;;44.60;28.63;;;;;;;;;;5013633;28;20672;-64
2022/09/15 00:40:48;;;;;;;49.33;28.93;;;;;;;;;;5013858;28;20697;-64
2022/09/15 00:43:14;;;;;;;44.97;28.67;;;;;;;;;;5012126;28;20179;-64
2022/09/15 00:45:40;;;;;;;50.27;28.33;;;;;;;;;;5013847;28;20176;-64
2022/09/15 00:48:08;;;;;;;47.83;27.70;;;;;;;;;;5012082;28;20250;-63
2022/09/15 00:50:36;;;;;;;47.10;27.83;;;;;;;;;;5012272;28;20207;-64
2022/09/15 00:53:04;;;;;;;44.90;27.00;;;;;;;;;;5013607;28;20187;-64
2022/09/15 00:55:33;;;;;;;51.07;28.47;;;;;;;;;;5016773;28;20175;-64
2022/09/15 00:58:02;;;;;;;43.93;27.70;;;;;;;;;;5016062;28;20668;-64
2022/09/15 01:00:28;;;;;;;47.30;28.30;;;;;;;;;;5017179;28;20207;-64
2022/09/15 01:02:54;;;;;;;46.90;27.43;;;;;;;;;;5015967;28;20176;-64
2022/09/15 01:05:22;;;;;;;44.20;26.47;;;;;;;;;;5017361;28;20180;-64
2022/09/15 01:07:58;;;;;;;46.23;27.77;;;;;;;;;;5016939;28;20559;-64
2022/09/15 01:10:28;;;;;;;46.87;28.73;;;;;;;;;;5015843;28;20179;-65
2022/09/15 01:12:56;;;;;;;51.37;27.60;;;;;;;;;;5015945;28;20263;-64
2022/09/15 01:15:25;;;;;;;48.13;28.60;;;;;;;;;;5017180;28;20238;-64
2022/09/15 01:17:51;;;;;;;43.50;27.43;;;;;;;;;;5016093;28;20719;-64
2022/09/15 01:20:20;;;;;;;47.63;29.70;;;;;;;;;;5016901;28;20199;-64
2022/09/15 01:22:58;;;;;;;52.27;29.63;;;;;;;;;;5016852;28;20218;-64
2022/09/15 01:28:30;;;;;;;51.97;28.73;;;;;;;;;;5015671;28;20223;-68
2022/09/15 01:31:02;;;;;;;44.90;28.80;;;;;;;;;;5016773;28;20540;-68
2022/09/15 01:33:37;;;;;;;49.43;27.87;;;;;;;;;;5015382;28;20649;-69
2022/09/15 01:36:11;;;;;;;47.27;27.67;;;;;;;;;;5016675;28;20202;-68
2022/09/15 01:38:40;;;;;;;47.20;28.37;;;;;;;;;;5015429;28;20180;-68
2022/09/15 01:41:24;;;;;;;49.83;28.47;;;;;;;;;;5015288;28;20207;-69
2022/09/15 01:43:53;;;;;;;52.10;28.87;;;;;;;;;;5016548;28;20203;-69
2022/09/15 01:46:20;;;;;;;49.43;27.20;;;;;;;;;;5015162;28;20211;-69
2022/09/15 01:48:47;;;;;;;46.00;27.27;;;;;;;;;;5016535;28;20186;-68
2022/09/15 01:51:13;;;;;;;46.13;27.07;;;;;;;;;;5016553;28;20180;-68
2022/09/15 01:53:40;;;;;;;43.70;26.83;;;;;;;;;;5016159;28;20551;-68
2022/09/15 01:56:07;;;;;;;41.43;25.53;;;;;;;;;;5016214;28;20231;-68
2022/09/15 01:58:33;;;;;;;44.00;27.03;;;;;;;;;;5016724;28;20180;-68
2022/09/15 02:01:02;;;;;;;43.97;27.37;;;;;;;;;;5014900;28;20207;-68
2022/09/15 02:03:32;;;;;;;46.70;27.53;;;;;;;;;;5016333;28;20660;-68
2022/09/15 02:06:06;;;;;;;45.33;26.20;;;;;;;;;;5015159;28;20691;-68
2022/09/15 02:08:43;;;;;;;52.80;28.63;;;;;;;;;;5014822;28;20255;-68
2022/09/15 02:11:15;;;;;;;45.20;26.63;;;;;;;;;;5014873;28;20176;-69
2022/09/15 02:13:48;;;;;;;47.13;26.63;;;;;;;;;;5014770;28;20191;-69
2022/09/15 02:16:18;;;;;;;48.57;27.87;;;;;;;;;;5015899;28;20250;-68
2022/09/15 02:18:47;;;;;;;45.30;26.23;;;;;;;;;;5016198;28;20744;-68
2022/09/15 02:21:39;;;;;;;47.60;26.23;;;;;;;;;;5015987;28;20214;-68
2022/09/15 02:24:07;;;;;;;45.57;25.90;;;;;;;;;;4989343;28;20192;-69
2022/09/15 02:26:34;;;;;;;42.87;25.50;;;;;;;;;;5014301;28;20687;-68
2022/09/15 02:29:04;;;;;;;44.27;25.97;;;;;;;;;;5015711;28;20175;-71
2022/09/15 02:31:31;;;;;;;41.03;25.47;;;;;;;;;;5015732;28;20183;-68
2022/09/15 02:33:59;;;;;;;44.97;27.07;;;;;;;;;;5015657;28;20180;-68
2022/09/15 02:36:26;;;;;;;41.33;26.43;;;;;;;;;;5015673;28;20207;-68
2022/09/15 02:38:53;;;;;;;37.10;24.57;;;;;;;;;;5014328;28;20184;-68
2022/09/15 02:41:20;;;;;;;44.37;24.97;;;;;;;;;;5015497;28;20690;-68
2022/09/15 02:43:49;;;;;;;38.00;24.47;;;;;;;;;;5014236;28;20187;-68
2022/09/15 02:46:17;;;;;;;40.33;23.27;;;;;;;;;;5014036;28;20207;-68
2022/09/15 02:48:43;;;;;;;33.23;22.70;;;;;;;;;;5015376;28;20175;-68
2022/09/15 02:51:09;;;;;;;37.63;23.57;;;;;;;;;;5015248;28;20180;-68
2022/09/15 02:53:35;;;;;;;33.57;22.87;;;;;;;;;;5015247;28;20191;-68
2022/09/15 02:56:02;;;;;;;33.97;21.20;;;;;;;;;;5013945;28;20204;-68
2022/09/15 02:58:28;;;;;;;33.27;21.03;;;;;;;;;;5013983;28;20253;-68
2022/09/15 03:00:55;;;;;;;30.87;21.33;;;;;;;;;;5013796;28;20646;-68
2022/09/15 03:03:21;;;;;;;33.90;22.67;;;;;;;;;;5015009;28;20172;-68
2022/09/15 03:05:47;;;;;;;31.87;20.90;;;;;;;;;;5014898;28;20207;-68
2022/09/15 03:08:13;;;;;;;29.90;20.90;;;;;;;;;;5015111;28;20234;-68
2022/09/15 03:10:39;;;;;;;39.73;21.50;;;;;;;;;;5015404;28;20180;-68
2022/09/15 03:13:04;;;;;;;30.77;20.40;;;;;;;;;;5013685;28;20187;-68
2022/09/15 03:15:32;;;;;;;33.60;20.27;;;;;;;;;;5014678;28;20555;-68
2022/09/15 03:17:58;;;;;;;30.43;20.13;;;;;;;;;;5013257;28;20234;-69
2022/09/15 03:20:27;;;;;;;32.77;21.60;;;;;;;;;;5013375;28;20191;-69
2022/09/15 03:22:53;;;;;;;30.43;22.00;;;;;;;;;;5014663;28;20521;-69
2022/09/15 03:25:20;;;;;;;38.90;22.13;;;;;;;;;;5013127;28;20184;-68
2022/09/15 03:27:46;;;;;;;35.13;22.83;;;;;;;;;;5013383;28;20586;-69
2022/09/15 03:30:12;;;;;;;37.47;25.33;;;;;;;;;;5014569;28;20226;-68
2022/09/15 03:32:38;;;;;;;35.73;23.40;;;;;;;;;;5013397;28;20176;-69
2022/09/15 03:35:05;;;;;;;34.37;23.47;;;;;;;;;;5014334;28;20172;-69
2022/09/15 03:37:32;;;;;;;32.93;23.83;;;;;;;;;;5014421;28;20600;-68
2022/09/15 03:39:58;;;;;;;33.87;25.80;;;;;;;;;;5013036;28;20283;-69
2022/09/15 03:42:24;;;;;;;36.60;24.77;;;;;;;;;;5014228;28;20322;-68
2022/09/15 03:44:50;;;;;;;32.00;23.63;;;;;;;;;;5012890;28;20211;-69
2022/09/15 03:47:16;;;;;;;36.93;24.20;;;;;;;;;;5014144;28;20199;-69
2022/09/15 03:49:42;;;;;;;32.77;22.47;;;;;;;;;;5014107;28;20544;-69
2022/09/15 03:52:08;;;;;;;35.83;22.80;;;;;;;;;;5012786;28;20184;-70
2022/09/15 03:54:34;;;;;;;31.33;21.40;;;;;;;;;;5014072;28;20647;-68
2022/09/15 03:57:00;;;;;;;33.20;20.73;;;;;;;;;;5012647;28;20239;-69
2022/09/15 03:59:26;;;;;;;31.33;20.13;;;;;;;;;;5013913;28;20649;-69
2022/09/15 04:01:52;;;;;;;28.97;20.50;;;;;;;;;;5012568;28;20250;-68
2022/09/15 04:04:18;;;;;;;30.97;20.07;;;;;;;;;;5013910;28;20179;-69
2022/09/15 04:06:44;;;;;;;30.67;20.87;;;;;;;;;;5012561;28;20661;-69
2022/09/15 04:09:11;;;;;;;27.13;19.10;;;;;;;;;;5013824;28;20180;-68
2022/09/15 04:11:38;;;;;;;27.23;20.10;;;;;;;;;;5013819;28;20184;-69
2022/09/15 04:14:04;;;;;;;28.57;19.17;;;;;;;;;;5013721;28;20176;-68
2022/09/15 04:16:30;;;;;;;25.83;19.30;;;;;;;;;;5013651;28;20338;-69
2022/09/15 04:18:56;;;;;;;26.33;18.97;;;;;;;;;;5013750;28;20194;-68
2022/09/15 04:21:24;;;;;;;27.80;19.07;;;;;;;;;;5014224;28;20578;-69
2022/09/15 04:23:50;;;;;;;30.40;20.43;;;;;;;;;;5012412;28;20180;-69
2022/09/15 04:26:28;;;;;;;27.97;20.33;;;;;;;;;;5013591;28;20219;-69
2022/09/15 04:28:54;;;;;;;33.13;19.90;;;;;;;;;;5011782;28;20190;-69
2022/09/15 04:31:20;;;;;;;29.90;20.07;;;;;;;;;;5012313;28;20551;-68
2022/09/15 04:33:47;;;;;;;29.97;20.93;;;;;;;;;;5013570;28;20191;-69
2022/09/15 04:36:20;;;;;;;30.27;19.80;;;;;;;;;;5012186;28;20203;-69
2022/09/15 04:38:46;;;;;;;32.83;21.37;;;;;;;;;;5012328;28;20187;-69
2022/09/15 04:41:13;;;;;;;32.67;21.10;;;;;;;;;;5012126;28;20254;-68
2022/09/15 04:43:39;;;;;;;29.70;20.93;;;;;;;;;;5013889;28;20222;-70
2022/09/15 04:46:06;;;;;;;35.57;21.40;;;;;;;;;;5013505;28;20242;-69
2022/09/15 04:48:32;;;;;;;33.87;21.40;;;;;;;;;;5013515;28;20590;-69
2022/09/15 04:51:01;;;;;;;37.43;21.80;;;;;;;;;;5013640;28;20610;-69
2022/09/15 04:53:28;;;;;;;32.20;20.97;;;;;;;;;;5013570;28;20598;-69
2022/09/15 04:56:00;;;;;;;33.60;21.93;;;;;;;;;;5013307;28;20200;-68
2022/09/15 04:58:26;;;;;;;33.90;22.23;;;;;;;;;;5013684;28;20628;-69
2022/09/15 05:00:52;;;;;;;32.43;23.00;;;;;;;;;;5013238;28;20235;-69
2022/09/15 05:03:18;;;;;;;37.10;23.33;;;;;;;;;;5011865;28;20688;-69
2022/09/15 05:05:47;;;;;;;33.40;23.70;;;;;;;;;;5012016;28;20187;-68
2022/09/15 05:08:12;;;;;;;39.57;25.53;;;;;;;;;;5011708;28;20246;-69
2022/09/15 05:10:38;;;;;;;34.67;24.40;;;;;;;;;;5013012;28;20636;-69
2022/09/15 05:13:04;;;;;;;39.43;23.77;;;;;;;;;;5011644;28;20190;-69
2022/09/15 05:15:30;;;;;;;37.33;26.47;;;;;;;;;;5011659;28;20190;-68
2022/09/15 05:17:57;;;;;;;42.73;26.73;;;;;;;;;;5011769;28;20660;-68
2022/09/15 05:20:23;;;;;;;38.37;26.53;;;;;;;;;;5011659;28;20184;-69
2022/09/15 05:22:49;;;;;;;43.83;27.80;;;;;;;;;;5011619;28;20172;-68
2022/09/15 05:25:15;;;;;;;38.40;25.87;;;;;;;;;;5011568;28;20234;-69
2022/09/15 05:27:41;;;;;;;44.97;26.77;;;;;;;;;;5013199;28;20715;-69
2022/09/15 05:30:08;;;;;;;36.37;25.83;;;;;;;;;;5013210;28;20208;-69
2022/09/15 05:32:34;;;;;;;34.97;25.93;;;;;;;;;;5013155;28;20267;-68
2022/09/15 05:34:59;;;;;;;40.73;26.43;;;;;;;;;;5011719;28;20223;-68
2022/09/15 05:37:25;;;;;;;37.23;26.23;;;;;;;;;;5012807;28;20215;-68
2022/09/15 05:39:52;;;;;;;39.83;27.20;;;;;;;;;;5013507;28;20186;-69
2022/09/15 05:42:18;;;;;;;32.60;26.43;;;;;;;;;;5016715;28;20202;-69
2022/09/15 05:44:43;;;;;;;35.40;25.97;;;;;;;;;;5015345;28;20229;-69
2022/09/15 05:47:09;;;;;;;35.73;25.13;;;;;;;;;;5016371;28;20282;-69
2022/09/15 05:49:35;;;;;;;33.13;25.07;;;;;;;;;;5015286;28;20172;-69
2022/09/15 05:52:02;;;;;;;38.37;26.00;;;;;;;;;;5016379;28;20681;-69
2022/09/15 05:54:27;;;;;;;31.77;25.97;;;;;;;;;;5015050;28;20188;-69
2022/09/15 05:56:53;;;;;;;35.33;25.13;;;;;;;;;;5014890;28;20196;-69
2022/09/15 05:59:19;;;;;;;30.97;22.83;;;;;;;;;;5016239;28;20229;-68
2022/09/15 06:01:45;;;;;;;30.73;22.93;;;;;;;;;;5016064;28;20211;-68
2022/09/15 06:04:11;;;;;;;30.63;23.03;;;;;;;;;;5014855;28;20270;-69
2022/09/15 06:06:37;;;;;;;30.50;23.03;;;;;;;;;;5015026;28;20203;-68
2022/09/15 06:09:04;;;;;;;34.60;22.37;;;;;;;;;;5014696;28;20230;-69
2022/09/15 06:11:32;;;;;;;28.40;23.30;;;;;;;;;;5016317;28;20186;-68
2022/09/15 06:13:59;;;;;;;33.33;23.13;;;;;;;;;;5014811;28;20703;-69
2022/09/15 06:16:25;;;;;;;34.87;22.37;;;;;;;;;;5014558;28;20253;-69
2022/09/15 06:18:52;;;;;;;30.53;22.17;;;;;;;;;;5014660;28;20187;-68
2022/09/15 06:21:22;;;;;;;31.83;21.73;;;;;;;;;;5014530;28;20345;-68
2022/09/15 06:24:02;;;;;;;33.20;22.57;;;;;;;;;;5015688;28;20230;-66
2022/09/15 06:26:28;;;;;;;30.23;20.90;;;;;;;;;;5015524;28;20675;-67
2022/09/15 06:28:56;;;;;;;27.23;21.27;;;;;;;;;;5014387;28;20210;-67
2022/09/15 06:31:22;;;;;;;28.97;20.50;;;;;;;;;;5015799;28;20184;-67
2022/09/15 06:33:50;;;;;;;27.97;20.53;;;;;;;;;;5015609;28;20280;-66
2022/09/15 06:36:16;;;;;;;26.37;20.00;;;;;;;;;;5015377;28;20203;-68
2022/09/15 06:38:43;;;;;;;27.17;20.37;;;;;;;;;;5014203;28;20184;-66
2022/09/15 06:41:09;;;;;;;27.30;21.23;;;;;;;;;;5015696;28;20276;-67
2022/09/15 06:43:35;;;;;;;26.87;20.50;;;;;;;;;;5015404;28;20546;-67
2022/09/15 06:46:03;;;;;;;25.67;20.90;;;;;;;;;;5015230;28;20192;-66
2022/09/15 06:48:30;;;;;;;32.50;20.87;;;;;;;;;;5015282;28;20172;-66
2022/09/15 06:50:57;;;;;;;27.73;20.63;;;;;;;;;;5013890;28;20194;-66
2022/09/15 06:53:23;;;;;;;24.07;20.30;;;;;;;;;;5014770;28;20225;-66
2022/09/15 06:55:49;;;;;;;25.60;20.40;;;;;;;;;;5013802;28;20290;-66
2022/09/15 06:58:15;;;;;;;27.10;20.17;;;;;;;;;;5013802;28;20184;-66
2022/09/15 07:00:42;;;;;;;30.83;20.50;;;;;;;;;;5013646;28;20226;-66
2022/09/15 07:03:07;;;;;;;30.70;19.77;;;;;;;;;;5013756;28;20275;-66
2022/09/15 07:05:34;;;;;;;24.17;21.00;;;;;;;;;;5013610;28;20262;-67
2022/09/15 07:08:00;;;;;;;28.37;20.07;;;;;;;;;;5015165;28;20183;-67
2022/09/15 07:10:26;;;;;;;27.17;19.43;;;;;;;;;;5013595;28;20179;-66
2022/09/15 07:12:52;;;;;;;26.73;20.13;;;;;;;;;;5014827;28;20267;-66
2022/09/15 07:15:18;;;;;;;23.70;20.57;;;;;;;;;;5014871;28;20183;-66
2022/09/15 07:17:44;;;;;;;27.73;20.27;;;;;;;;;;5014847;28;20649;-66
2022/09/15 07:20:10;;;;;;;24.50;20.97;;;;;;;;;;5015330;28;20175;-67
2022/09/15 07:22:35;;;;;;;25.87;20.40;;;;;;;;;;5014666;28;20689;-66
2022/09/15 07:25:01;;;;;;;24.50;19.67;;;;;;;;;;5014905;28;20176;-66
2022/09/15 07:27:30;;;;;;;23.53;19.37;;;;;;;;;;5013048;28;20219;-67
2022/09/15 07:29:57;;;;;;;24.60;18.87;;;;;;;;;;5013328;28;20179;-66
2022/09/15 07:32:23;;;;;;;20.40;16.43;;;;;;;;;;5014634;28;20226;-67
2022/09/15 07:34:50;;;;;;;26.10;16.67;;;;;;;;;;5013081;28;20599;-67
2022/09/15 07:37:16;;;;;;;21.40;15.60;;;;;;;;;;5013069;28;20250;-67
2022/09/15 07:39:42;;;;;;;20.33;16.30;;;;;;;;;;5014325;28;20176;-66
2022/09/15 07:42:08;;;;;;;18.10;15.67;;;;;;;;;;5014112;28;20211;-66
2022/09/15 07:44:34;;;;;;;18.43;14.70;;;;;;;;;;5014185;28;20180;-66
2022/09/15 07:47:00;;;;;;;21.33;16.20;;;;;;;;;;5014207;28;20204;-66
2022/09/15 07:49:26;;;;;;;19.83;14.87;;;;;;;;;;5014267;28;20183;-66
2022/09/15 07:51:52;;;;;;;20.33;16.07;;;;;;;;;;5013996;28;20183;-66
2022/09/15 07:54:18;;;;;;;16.23;14.40;;;;;;;;;;5012772;28;20608;-66
2022/09/15 07:56:44;;;;;;;18.23;12.87;;;;;;;;;;5012701;28;20210;-66
2022/09/15 07:59:10;;;;;;;14.87;13.10;;;;;;;;;;5015332;28;20667;-67
2022/09/15 08:01:36;;;;;;;19.27;12.90;;;;;;;;;;5012628;28;20258;-67
2022/09/15 08:04:02;;;;;;;16.20;12.03;;;;;;;;;;5013930;28;20207;-67
2022/09/15 08:06:28;;;;;;;17.73;10.93;;;;;;;;;;5014710;28;20200;-67
2022/09/15 08:08:55;;;;;;;14.00;11.10;;;;;;;;;;5014762;28;20645;-67
2022/09/15 08:11:21;;;;;;;12.70;9.47;;;;;;;;;;5013231;28;20183;-67
2022/09/15 08:13:48;;;;;;;12.63;9.00;;;;;;;;;;5014192;28;20190;-67
2022/09/15 08:16:15;;;;;;;9.67;7.67;;;;;;;;;;5013679;28;20205;-67
2022/09/15 08:18:42;;;;;;;10.73;7.20;;;;;;;;;;5013887;28;20229;-68
2022/09/15 08:21:09;;;;;;;13.27;7.33;;;;;;;;;;5012376;28;20281;-67
2022/09/15 08:23:36;;;;;;;10.70;7.03;;;;;;;;;;5013613;28;20176;-67
2022/09/15 08:26:02;;;;;;;11.37;7.67;;;;;;;;;;5013488;28;20199;-67
2022/09/15 08:28:28;;;;;;;10.83;7.47;;;;;;;;;;5012442;28;20176;-68
2022/09/15 08:30:58;;;;;;;10.83;6.70;;;;;;;;;;5013498;28;20184;-67
2022/09/15 08:33:24;;;;;;;8.87;5.63;;;;;;;;;;5013845;28;20172;-67
2022/09/15 08:35:50;;;;;;;7.17;4.57;;;;;;;;;;5012296;28;20208;-67
2022/09/15 08:38:16;;;;;;;8.37;4.60;;;;;;;;;;5013535;28;20222;-67
2022/09/15 08:40:44;;;;;;;8.50;4.47;;;;;;;;;;5013376;28;20188;-67
2022/09/15 08:43:17;;;;;;;8.93;4.50;;;;;;;;;;5012203;28;20245;-67
2022/09/15 08:45:55;;;;;;;7.43;4.27;;;;;;;;;;5012093;28;20672;-67
2022/09/15 08:48:25;;;;;;;7.13;3.73;;;;;;;;;;5012134;28;20176;-66
2022/09/15 08:50:54;;;;;;;5.37;3.57;;;;;;;;;;5013941;28;20304;-67
2022/09/15 08:53:24;;;;;;;10.33;5.20;;;;;;;;;;5013352;28;20597;-67
2022/09/15 08:55:52;;;;;;;7.33;5.53;;;;;;;;;;5013858;28;20211;-67
2022/09/15 08:58:19;;;;;;;10.70;7.13;;;;;;;;;;5013479;28;20179;-67
2022/09/15 09:00:47;;;;;;;12.60;6.83;;;;;;;;;;5013643;28;20683;-67
2022/09/15 09:03:30;;;;;;;8.30;6.60;;;;;;;;;;5013267;28;20656;-66
2022/09/15 09:05:56;;;;;;;8.30;4.63;;;;;;;;;;5011936;28;20203;-66
2022/09/15 09:08:40;;;;;;;8.13;4.50;;;;;;;;;;5013128;28;20519;-67
2022/09/15 09:11:07;;;;;;;6.83;3.97;;;;;;;;;;5013168;28;20184;-67
2022/09/15 09:13:39;;;;;;;8.13;3.43;;;;;;;;;;5013119;28;20180;-67
2022/09/15 09:16:08;;;;;;;9.87;3.93;;;;;;;;;;5014433;28;20324;-67
2022/09/15 09:18:58;;;;;;;9.80;4.10;;;;;;;;;;5016930;28;20172;-67
2022/09/15 09:21:30;;;;;;;8.57;3.97;;;;;;;;;;5015526;28;20242;-67
2022/09/15 09:24:05;;;;;;;5.53;3.30;;;;;;;;;;5016772;28;20299;-67
2022/09/15 09:26:32;;;;;;;8.93;3.50;;;;;;;;;;5016623;28;20618;-67
2022/09/15 09:28:59;;;;;;;10.67;3.63;;;;;;;;;;5017232;28;20176;-67
2022/09/15 09:31:27;;;;;;;11.13;3.20;;;;;;;;;;5016791;28;20176;-67
2022/09/15 09:33:55;;;;;;;8.37;3.37;;;;;;;;;;5017271;28;20786;-68
2022/09/15 09:36:22;;;;;;;9.43;3.50;;;;;;;;;;5016870;28;20196;-68
2022/09/15 09:38:48;;;;;;;6.23;3.20;;;;;;;;;;5016617;28;20203;-67
2022/09/15 09:41:16;;;;;;;8.80;2.57;;;;;;;;;;5015313;28;20593;-67
2022/09/15 09:43:46;;;;;;;7.93;2.70;;;;;;;;;;5016928;28;20609;-68
2022/09/15 09:46:16;;;;;;;11.30;3.50;;;;;;;;;;5015244;28;20204;-68
2022/09/15 09:48:45;;;;;;;6.83;2.90;;;;;;;;;;5015183;28;20187;-68
2022/09/15 09:51:30;;;;;;;11.33;3.20;;;;;;;;;;5016264;28;20199;-68
2022/09/15 09:53:56;;;;;;;4.83;2.87;;;;;;;;;;5016484;28;20179;-67
2022/09/15 09:56:23;;;;;;;4.07;2.40;;;;;;;;;;5015113;28;20605;-67
2022/09/15 09:58:50;;;;;;;7.80;2.03;;;;;;;;;;5016436;28;20184;-67
2022/09/15 10:01:17;;;;;;;6.53;2.30;;;;;;;;;;5016402;28;20196;-68
2022/09/15 10:03:44;;;;;;;5.07;2.30;;;;;;;;;;5016600;28;20202;-67
2022/09/15 10:06:15;;;;;;;5.27;2.43;;;;;;;;;;5014690;28;20200;-67
2022/09/15 10:08:52;;;;;;;11.93;2.53;;;;;;;;;;5016236;28;20184;-67
2022/09/15 10:11:18;;;;;;;6.60;2.23;;;;;;;;;;5016410;28;20168;-67
2022/09/15 10:13:55;;;;;;;4.73;2.30;;;;;;;;;;5014664;28;20190;-67
2022/09/15 10:16:22;;;;;;;12.33;2.50;;;;;;;;;;5015062;28;20261;-67
2022/09/15 10:18:49;;;;;;;6.97;2.33;;;;;;;;;;5015888;28;20207;-67
2022/09/15 10:21:16;;;;;;;7.47;3.40;;;;;;;;;;5016001;28;20743;-66
2022/09/15 10:23:42;;;;;;;6.53;2.13;;;;;;;;;;5014689;28;20324;-68
2022/09/15 10:26:14;;;;;;;8.23;3.43;;;;;;;;;;5015065;28;20683;-67
2022/09/15 10:28:40;;;;;;;7.73;2.37;;;;;;;;;;5014310;28;20180;-67
2022/09/15 10:31:10;;;;;;;4.27;2.33;;;;;;;;;;5015768;28;20188;-68
2022/09/15 10:33:37;;;;;;;9.80;2.63;;;;;;;;;;5014368;28;20267;-67
2022/09/15 10:36:11;;;;;;;5.13;2.77;;;;;;;;;;5015850;28;20579;-68
2022/09/15 10:38:47;;;;;;;5.83;3.07;;;;;;;;;;5015573;28;20176;-67
2022/09/15 10:41:20;;;;;;;6.70;3.10;;;;;;;;;;5015619;28;20203;-68
2022/09/15 10:43:55;;;;;;;6.37;2.70;;;;;;;;;;5015736;28;20172;-67
2022/09/15 10:46:26;;;;;;;5.77;2.20;;;;;;;;;;5015513;28;20195;-67
2022/09/15 10:48:55;;;;;;;6.30;2.63;;;;;;;;;;5014038;28;20555;-67
2022/09/15 10:51:30;;;;;;;6.57;2.70;;;;;;;;;;5015355;28;20196;-67
2022/09/15 10:54:11;;;;;;;6.40;2.70;;;;;;;;;;5013909;28;20215;-67
2022/09/15 10:56:40;;;;;;;3.70;2.63;;;;;;;;;;5015274;28;20210;-67
2022/09/15 10:59:12;;;;;;;6.57;3.30;;;;;;;;;;5013922;28;20640;-67
2022/09/15 11:01:54;;;;;;;10.33;4.07;;;;;;;;;;5015093;28;20290;-67
2022/09/15 11:04:20;;;;;;;6.70;2.73;;;;;;;;;;5015471;28;20243;-67
2022/09/15 11:06:58;;;;;;;6.90;3.27;;;;;;;;;;5014933;28;20231;-67
2022/09/15 11:09:24;;;;;;;6.47;2.20;;;;;;;;;;5013605;28;20179;-67
2022/09/15 11:11:50;;;;;;;8.17;3.80;;;;;;;;;;5014846;28;20187;-67
2022/09/15 11:14:38;;;;;;;8.33;2.40;;;;;;;;;;5015265;28;20192;-67
2022/09/15 11:17:10;;;;;;;6.63;2.70;;;;;;;;;;5013481;28;20211;-67
2022/09/15 11:19:48;;;;;;;8.30;2.53;;;;;;;;;;5014844;28;20258;-67
2022/09/15 11:22:18;;;;;;;7.87;2.70;;;;;;;;;;5014825;28;20206;-67
2022/09/15 11:24:47;;;;;;;5.80;2.57;;;;;;;;;;5014842;28;20234;-67
2022/09/15 11:27:17;;;;;;;9.83;2.60;;;;;;;;;;5014516;28;20217;-67
2022/09/15 11:30:02;;;;;;;9.73;3.00;;;;;;;;;;5013449;28;20183;-67
2022/09/15 11:32:48;;;;;;;8.87;2.87;;;;;;;;;;5014443;28;20184;-67
2022/09/15 11:35:21;;;;;;;5.30;2.63;;;;;;;;;;5013030;28;20180;-67
2022/09/15 11:37:49;;;;;;;8.77;3.63;;;;;;;;;;5012905;28;20203;-67
2022/09/15 11:40:21;;;;;;;11.03;3.30;;;;;;;;;;5014364;28;20580;-67
2022/09/15 11:43:13;;;;;;;6.80;3.17;;;;;;;;;;5013810;28;20203;-67
2022/09/15 11:45:43;;;;;;;8.80;3.50;;;;;;;;;;5017013;28;20198;-68
2022/09/15 11:48:13;;;;;;;9.20;3.20;;;;;;;;;;5014197;28;20207;-67
2022/09/15 11:50:42;;;;;;;9.07;3.37;;;;;;;;;;5012957;28;20193;-67
2022/09/15 11:53:30;;;;;;;11.03;4.07;;;;;;;;;;5014243;28;20184;-67
2022/09/15 11:56:05;;;;;;;9.10;3.80;;;;;;;;;;5014668;28;20196;-66
2022/09/15 11:58:50;;;;;;;9.70;3.53;;;;;;;;;;5014586;28;20171;-67
2022/09/15 12:01:24;;;;;;;7.13;4.23;;;;;;;;;;5012705;28;20199;-66
2022/09/15 12:03:58;;;;;;;11.10;3.37;;;;;;;;;;5012806;28;20669;-67
2022/09/15 12:06:28;;;;;;;6.90;3.43;;;;;;;;;;5012712;28;20200;-67
2022/09/15 12:09:02;;;;;;;6.00;2.97;;;;;;;;;;5012687;28;20172;-68
2022/09/15 12:11:30;;;;;;;8.97;3.37;;;;;;;;;;5012550;28;20587;-67
2022/09/15 12:13:57;;;;;;;6.93;3.00;;;;;;;;;;5012512;28;20624;-67
2022/09/15 12:16:23;;;;;;;6.00;2.80;;;;;;;;;;5012385;28;20211;-67
2022/09/15 12:19:01;;;;;;;8.00;2.73;;;;;;;;;;5012551;28;20184;-67
2022/09/15 12:21:27;;;;;;;5.60;2.40;;;;;;;;;;5013566;28;20257;-67
2022/09/15 12:23:59;;;;;;;9.70;3.27;;;;;;;;;;5013642;28;20653;-67
2022/09/15 12:26:26;;;;;;;4.50;2.17;;;;;;;;;;5012161;28;20215;-67
2022/09/15 12:29:02;;;;;;;10.20;2.70;;;;;;;;;;5013614;28;20180;-67
2022/09/15 12:31:38;;;;;;;12.47;5.17;;;;;;;;;;5013763;28;20186;-67
2022/09/15 12:34:22;;;;;;;7.70;4.27;;;;;;;;;;5013793;28;20202;-67
2022/09/15 12:36:50;;;;;;;9.57;4.40;;;;;;;;;;5013504;28;20203;-67
2022/09/15 12:39:21;;;;;;;15.27;7.77;;;;;;;;;;5013709;28;20241;-67
2022/09/15 12:41:49;;;;;;;19.93;12.23;;;;;;;;;;5012107;28;20211;-67
2022/09/15 12:44:21;;;;;;;17.40;7.23;;;;;;;;;;5012097;28;20176;-67
2022/09/15 12:46:50;;;;;;;10.43;5.27;;;;;;;;;;5012020;28;20204;-67
2022/09/15 12:49:17;;;;;;;8.13;3.87;;;;;;;;;;5014093;28;20183;-67
2022/09/15 12:51:48;;;;;;;7.77;3.93;;;;;;;;;;5019828;28;20180;-67
2022/09/15 12:54:20;;;;;;;7.67;2.63;;;;;;;;;;5020249;28;20657;-67
2022/09/15 12:56:50;;;;;;;8.83;2.60;;;;;;;;;;5019832;28;20207;-68
2022/09/15 12:59:16;;;;;;;8.70;2.63;;;;;;;;;;5018654;28;20233;-68
2022/09/15 13:01:47;;;;;;;6.43;2.57;;;;;;;;;;5020095;28;20207;-68
2022/09/15 13:04:24;;;;;;;7.80;2.27;;;;;;;;;;5018708;28;20187;-67
2022/09/15 13:07:21;;;;;;;8.53;2.30;;;;;;;;;;5018776;28;20550;-68
2022/09/15 13:10:17;;;;;;;7.30;2.33;;;;;;;;;;5019827;28;20168;-68
2022/09/15 13:12:49;;;;;;;5.50;2.13;;;;;;;;;;5020010;28;20162;-68
2022/09/15 13:15:15;;;;;;;4.77;2.00;;;;;;;;;;5020214;28;20242;-68
2022/09/15 13:17:45;;;;;;;5.07;1.83;;;;;;;;;;5018307;28;20267;-67
2022/09/15 13:20:16;;;;;;;4.70;1.90;;;;;;;;;;5019825;28;20179;-67
2022/09/15 13:22:49;;;;;;;5.17;2.20;;;;;;;;;;5019803;28;20207;-67
2022/09/15 13:25:17;;;;;;;4.10;2.03;;;;;;;;;;5020221;28;20152;-68
2022/09/15 13:27:45;;;;;;;5.70;1.90;;;;;;;;;;5019361;28;20582;-67
2022/09/15 13:30:35;;;;;;;5.30;2.13;;;;;;;;;;5019838;28;20174;-67
2022/09/15 13:33:01;;;;;;;5.10;2.00;;;;;;;;;;5014287;28;20195;-67
2022/09/15 13:35:26;;;;;;;4.90;1.80;;;;;;;;;;5018203;28;20313;-67
2022/09/15 13:38:02;;;;;;;5.60;2.00;;;;;;;;;;5019365;28;20627;-67
2022/09/15 13:40:46;;;;;;;5.27;2.10;;;;;;;;;;5018291;28;20187;-67
2022/09/15 13:43:30;;;;;;;4.67;1.80;;;;;;;;;;5019851;28;20199;-67
2022/09/15 13:46:14;;;;;;;8.40;1.90;;;;;;;;;;5019642;28;20795;-67
2022/09/15 13:48:54;;;;;;;7.47;2.20;;;;;;;;;;5020290;28;20532;-67
2022/09/15 13:51:24;;;;;;;4.40;1.90;;;;;;;;;;5018272;28;20164;-67
2022/09/15 13:54:02;;;;;;;3.70;1.87;;;;;;;;;;5019398;28;20192;-68
2022/09/15 13:56:31;;;;;;;7.33;2.37;;;;;;;;;;5019359;28;20238;-67
2022/09/15 13:59:01;;;;;;;4.77;1.90;;;;;;;;;;5019314;28;20184;-68
2022/09/15 14:01:27;;;;;;;5.50;1.87;;;;;;;;;;5017838;28;20212;-68
2022/09/15 14:03:56;;;;;;;7.83;1.93;;;;;;;;;;5016126;28;20241;-67
2022/09/15 14:06:29;;;;;;;8.40;2.33;;;;;;;;;;5014949;28;20200;-68
2022/09/15 14:08:57;;;;;;;8.30;2.53;;;;;;;;;;5014957;28;20195;-67
2022/09/15 14:11:26;;;;;;;8.07;2.17;;;;;;;;;;5016115;28;20187;-67
2022/09/15 14:13:53;;;;;;;6.43;2.17;;;;;;;;;;5016036;28;20202;-68
2022/09/15 14:16:24;;;;;;;7.17;2.60;;;;;;;;;;5017175;28;20207;-67
2022/09/15 14:18:51;;;;;;;7.73;2.37;;;;;;;;;;5015951;28;20243;-67
2022/09/15 14:21:17;;;;;;;4.47;2.37;;;;;;;;;;5015926;28;20238;-67
2022/09/15 14:23:48;;;;;;;7.67;2.57;;;;;;;;;;5015868;28;20180;-67
2022/09/15 14:26:14;;;;;;;7.07;2.73;;;;;;;;;;5015482;28;20215;-67
2022/09/15 14:28:41;;;;;;;6.80;2.53;;;;;;;;;;5016069;28;20164;-67
2022/09/15 14:31:07;;;;;;;7.70;2.70;;;;;;;;;;5015744;28;20278;-67
2022/09/15 14:33:37;;;;;;;8.03;2.97;;;;;;;;;;5015780;28;20180;-67
2022/09/15 14:36:11;;;;;;;8.07;2.90;;;;;;;;;;5015925;28;20203;-66
2022/09/15 14:38:37;;;;;;;10.77;3.00;;;;;;;;;;5015468;28;20171;-67
2022/09/15 14:41:04;;;;;;;4.93;2.40;;;;;;;;;;5014061;28;20207;-67
2022/09/15 14:43:31;;;;;;;5.13;2.30;;;;;;;;;;5015352;28;20608;-67